Aeroporto :
LOGIN :

Iscrizione | Disclaimer

   EN    FR    IT 

 










Sommario :    VFR   VFR Marginale   IFR   IFR Intensivo   IFR Molto Intensivo
Visibilità : 
Base nubi : 
>= 8 km
>= 3000ft
5 / 8 km
1000 / 3000 ft
1500m / 5 km
500 / 1000 ft
800 / 1500m
200 / 500 ft
< 800m
< 200 ft
Simboli :   Temporali  Nebbia  Neve Forte  Precipitazioni Forti  Vento > 20 kt
SIGMETs :   Varie  Temporali  Ghiacco  Turbolenza  Onda orograficha  Ceneri Vulcaniche






- Altitudine del aeroporto : 659 ft
- Codice IATA : LGG


EBLG - Liège

ULTIMO METAR :
  • 201420Z VRB02KT 9999 FEW032 19/11 Q1010 NOSIG

METARs OBSOLETI :
  • 201350Z 04004KT 360V090 9999 FEW030 19/11 Q1010 NOSIG
  • 201320Z 02004KT 330V100 9999 FEW030 19/11 Q1010 NOSIG
  • 201250Z 01004KT 290V080 9999 FEW030 18/11 Q1011 NOSIG
  • 201220Z 36005KT 300V050 9999 FEW028 19/12 Q1011 NOSIG
  • 201150Z 35008KT 310V020 9999 FEW026 18/11 Q1011 NOSIG
  • 201120Z 34006KT 290V030 9999 SCT022 SCT045 18/13 Q1011 NOSIG
  • 201050Z 35004KT 290V040 9999 SCT022 SCT045 18/12 Q1011 NOSIG
  • 201020Z 34004KT 300V080 9999 SCT017 17/12 Q1012 NOSIG
  • 200950Z 36004KT 330V070 9000 SCT014 16/13 Q1012 NOSIG

TAF TAF EBLG
Valido dal 20 a 12 ore il 21 a 18 ore UTC


201108Z 2012/2118 01004KT 9999 SCT020
PROB30
TEMPO 2012/2019 4000 SHRA SCT020CB
PROB40
TEMPO 2102/2107 3500 BR
PROB30
TEMPO 2115/2118 4500 SHRA TSRA BKN008 BKN015CB



MetMap, La meteo Aeronautica in un colpo d'occhio ! - Copyright ORBIFLY Dicembre 2007 - Disclaimer

ORBIFLY MET'MAP TEAM :

Programmazione e sviluppo : Alexandra Zaïnal
Concezione : Baudouin d'Aumeries
Supporto tecnico e logistico : Manuel Goepfert
Aiuto : Marc-Olivier Méhu
Aiuto per la traduzione : Arnaldo La Scala




FONTI E CREDITI :

   NOAA